Time,TemperatureF,DewpointF,PressureIn,WindDirection,WindDirectionDegrees,WindSpeedMPH,WindSpeedGustMPH,Humidity,HourlyPrecipIn,Conditions,Clouds,dailyrainin,SoftwareType,DateUTC
2013-04-04 00:02:00,30.0,23.0,30.25,North,0,0.0,0.0,74,0.00,,,0.00,,2013-04-04 05:02:00,
2013-04-04 00:12:00,30.0,23.0,30.25,North,0,0.0,0.0,74,0.00,,,0.00,,2013-04-04 05:12:00,
2013-04-04 00:23:00,29.0,22.0,30.25,North,0,0.0,0.0,75,0.00,,,0.00,,2013-04-04 05:23:00,
2013-04-04 00:32:00,27.0,20.0,30.24,North,0,0.0,0.0,73,0.00,,,0.00,,2013-04-04 05:32:00,
2013-04-04 00:42:00,27.0,20.0,30.24,North,0,0.0,0.0,73,0.00,,,0.00,,2013-04-04 05:42:00,
2013-04-04 00:53:00,26.0,20.0,30.24,North,0,0.0,0.0,77,0.00,,,0.00,,2013-04-04 05:53:00,
2013-04-04 01:02:00,27.0,22.0,30.24,North,0,0.0,0.0,81,0.00,,,0.00,,2013-04-04 06:02:00,
2013-04-04 01:12:00,27.0,22.0,30.24,North,0,0.0,0.0,81,0.00,,,0.00,,2013-04-04 06:12:00,
2013-04-04 01:22:00,26.0,21.0,30.24,North,0,0.0,0.0,82,0.00,,,0.00,,2013-04-04 06:22:00,
2013-04-04 01:32:00,26.0,20.0,30.24,North,0,0.0,0.0,78,0.00,,,0.00,,2013-04-04 06:32:00,
2013-04-04 01:42:00,26.0,20.0,30.24,North,0,0.0,0.0,78,0.00,,,0.00,,2013-04-04 06:42:00,
2013-04-04 01:52:00,26.0,21.0,30.23,North,0,0.0,0.0,81,0.00,,,0.00,,2013-04-04 06:52:00,
2013-04-04 02:02:00,27.0,22.0,30.23,North,0,0.0,0.0,82,0.00,,,0.00,,2013-04-04 07:02:00,
2013-04-04 02:12:00,27.0,22.0,30.23,North,0,0.0,0.0,82,0.00,,,0.00,,2013-04-04 07:12:00,
2013-04-04 02:22:00,28.0,23.0,30.23,North,0,0.0,0.0,81,0.00,,,0.00,,2013-04-04 07:22:00,
2013-04-04 02:32:00,28.0,22.0,30.22,North,0,0.0,0.0,78,0.00,,,0.00,,2013-04-04 07:32:00,
2013-04-04 02:42:00,28.0,22.0,30.22,North,0,0.0,0.0,78,0.00,,,0.00,,2013-04-04 07:42:00,
2013-04-04 02:52:00,27.0,22.0,30.21,North,0,0.0,0.0,80,0.00,,,0.00,,2013-04-04 07:52:00,
2013-04-04 03:02:00,30.0,22.0,30.21,North,0,0.0,0.0,73,0.00,,,0.00,,2013-04-04 08:02:00,
2013-04-04 03:12:00,30.0,22.0,30.21,North,0,0.0,0.0,73,0.00,,,0.00,,2013-04-04 08:12:00,
2013-04-04 03:22:00,31.0,21.0,30.21,North,0,0.0,0.0,66,0.00,,,0.00,,2013-04-04 08:22:00,
2013-04-04 03:32:00,33.0,21.0,30.20,SSE,156,1.0,3.0,60,0.00,,,0.00,,2013-04-04 08:32:00,
2013-04-04 03:43:00,33.0,21.0,30.20,SSE,156,1.0,3.0,60,0.00,,,0.00,,2013-04-04 08:43:00,
2013-04-04 03:52:00,34.0,20.0,30.19,South,169,2.0,5.0,57,0.00,,,0.00,,2013-04-04 08:52:00,
2013-04-04 04:02:00,34.0,20.0,30.19,SSE,157,3.0,5.0,56,0.00,,,0.00,,2013-04-04 09:02:00,
2013-04-04 04:12:00,34.0,20.0,30.19,SSE,157,3.0,5.0,56,0.00,,,0.00,,2013-04-04 09:12:00,
2013-04-04 04:22:00,34.0,20.0,30.18,SSE,157,1.0,4.0,57,0.00,,,0.00,,2013-04-04 09:22:00,
2013-04-04 04:33:00,34.0,21.0,30.19,South,179,1.0,4.0,58,0.00,,,0.00,,2013-04-04 09:33:00,
2013-04-04 04:43:00,34.0,21.0,30.19,South,179,1.0,4.0,58,0.00,,,0.00,,2013-04-04 09:43:00,
2013-04-04 04:54:00,33.0,21.0,30.18,North,0,0.0,4.0,60,0.00,,,0.00,,2013-04-04 09:54:00,
2013-04-04 05:03:00,33.0,21.0,30.19,SSW,205,1.0,3.0,61,0.00,,,0.00,,2013-04-04 10:03:00,
2013-04-04 05:12:00,33.0,21.0,30.19,SSW,205,1.0,3.0,61,0.00,,,0.00,,2013-04-04 10:12:00,
2013-04-04 05:23:00,33.0,21.0,30.19,North,0,0.0,2.0,62,0.00,,,0.00,,2013-04-04 10:23:00,
2013-04-04 05:33:00,31.0,21.0,30.19,North,0,0.0,0.0,65,0.00,,,0.00,,2013-04-04 10:33:00,
2013-04-04 05:42:00,31.0,21.0,30.19,North,0,0.0,0.0,65,0.00,,,0.00,,2013-04-04 10:42:00,
2013-04-04 05:53:00,31.0,21.0,30.19,North,0,0.0,0.0,65,0.00,,,0.00,,2013-04-04 10:53:00,
2013-04-04 06:02:00,29.0,21.0,30.19,North,0,0.0,0.0,71,0.00,,,0.00,,2013-04-04 11:02:00,
2013-04-04 06:12:00,29.0,21.0,30.19,North,0,0.0,0.0,71,0.00,,,0.00,,2013-04-04 11:12:00,
2013-04-04 06:22:00,28.0,20.0,30.19,North,0,0.0,0.0,72,0.00,,,0.00,,2013-04-04 11:22:00,
2013-04-04 06:33:00,28.0,22.0,30.19,North,0,0.0,0.0,78,0.00,,,0.00,,2013-04-04 11:33:00,
2013-04-04 06:42:00,28.0,22.0,30.19,North,0,0.0,0.0,78,0.00,,,0.00,,2013-04-04 11:42:00,
2013-04-04 06:54:00,27.0,20.0,30.19,North,0,0.0,0.0,76,0.00,,,0.00,,2013-04-04 11:54:00,
2013-04-04 07:02:00,26.0,21.0,30.19,North,0,0.0,0.0,80,0.00,,,0.00,,2013-04-04 12:02:00,
2013-04-04 07:12:00,26.0,21.0,30.19,North,0,0.0,0.0,80,0.00,,,0.00,,2013-04-04 12:12:00,
2013-04-04 07:22:00,27.0,22.0,30.18,North,0,0.0,0.0,81,0.00,,,0.00,,2013-04-04 12:22:00,
2013-04-04 07:32:00,29.0,21.0,30.18,North,0,0.0,3.0,73,0.00,,,0.00,,2013-04-04 12:32:00,
2013-04-04 07:43:00,29.0,21.0,30.18,North,0,0.0,3.0,73,0.00,,,0.00,,2013-04-04 12:43:00,
2013-04-04 07:52:00,27.0,20.0,30.18,North,0,0.0,0.0,73,0.00,,,0.00,,2013-04-04 12:52:00,
2013-04-04 08:02:00,30.0,22.0,30.18,North,0,0.0,0.0,73,0.00,,,0.00,,2013-04-04 13:02:00,
2013-04-04 08:12:00,30.0,22.0,30.18,North,0,0.0,0.0,73,0.00,,,0.00,,2013-04-04 13:12:00,
2013-04-04 08:22:00,32.0,22.0,30.17,SSE,166,3.0,4.0,66,0.00,,,0.00,,2013-04-04 13:22:00,
2013-04-04 08:32:00,34.0,23.0,30.17,South,169,3.0,5.0,63,0.00,,,0.00,,2013-04-04 13:32:00,
2013-04-04 08:42:00,34.0,23.0,30.17,South,169,3.0,5.0,63,0.00,,,0.00,,2013-04-04 13:42:00,
2013-04-04 08:53:00,37.0,24.0,30.17,SSW,213,2.0,7.0,59,0.00,,,0.00,,2013-04-04 13:53:00,
2013-04-04 09:03:00,39.0,23.0,30.16,SSW,213,4.0,8.0,53,0.00,,,0.00,,2013-04-04 14:03:00,
2013-04-04 09:12:00,39.0,23.0,30.16,SSW,213,4.0,8.0,53,0.00,,,0.00,,2013-04-04 14:12:00,
2013-04-04 09:22:00,41.0,25.0,30.16,SW,227,3.0,8.0,53,0.00,,,0.00,,2013-04-04 14:22:00,
2013-04-04 09:32:00,43.0,25.0,30.15,SW,235,5.0,11.0,49,0.00,,,0.00,,2013-04-04 14:32:00,
2013-04-04 09:42:00,43.0,25.0,30.15,SW,235,5.0,11.0,49,0.00,,,0.00,,2013-04-04 14:42:00,
2013-04-04 09:52:00,44.0,25.0,30.15,West,262,4.0,11.0,47,0.00,,,0.00,,2013-04-04 14:52:00,
2013-04-04 10:02:00,45.0,25.0,30.14,WSW,239,6.0,13.0,45,0.00,,,0.00,,2013-04-04 15:02:00,
2013-04-04 10:12:00,45.0,25.0,30.14,WSW,239,6.0,13.0,45,0.00,,,0.00,,2013-04-04 15:12:00,
2013-04-04 10:22:00,46.0,24.0,30.14,WSW,258,5.0,9.0,42,0.00,,,0.00,,2013-04-04 15:22:00,
2013-04-04 10:33:00,47.0,26.0,30.14,West,262,7.0,11.0,43,0.00,,,0.00,,2013-04-04 15:33:00,
2013-04-04 10:43:00,47.0,26.0,30.14,West,262,7.0,11.0,43,0.00,,,0.00,,2013-04-04 15:43:00,
2013-04-04 10:53:00,49.0,27.0,30.14,West,268,5.0,11.0,42,0.00,,,0.00,,2013-04-04 15:53:00,
2013-04-04 11:03:00,50.0,27.0,30.13,WSW,257,6.0,13.0,40,0.00,,,0.00,,2013-04-04 16:03:00,
2013-04-04 11:12:00,50.0,27.0,30.13,WSW,257,6.0,13.0,40,0.00,,,0.00,,2013-04-04 16:12:00,
2013-04-04 11:23:00,51.0,26.0,30.13,West,276,7.0,12.0,38,0.00,,,0.00,,2013-04-04 16:23:00,
2013-04-04 11:32:00,51.0,27.0,30.13,WSW,253,6.0,13.0,39,0.00,,,0.00,,2013-04-04 16:32:00,
2013-04-04 11:42:00,51.0,27.0,30.13,WSW,253,6.0,13.0,39,0.00,,,0.00,,2013-04-04 16:42:00,
2013-04-04 11:53:00,52.0,27.0,30.13,WSW,252,6.0,12.0,38,0.00,,,0.00,,2013-04-04 16:53:00,
2013-04-04 12:02:00,53.0,29.0,30.13,West,280,6.0,13.0,39,0.00,,,0.00,,2013-04-04 17:02:00,
2013-04-04 12:13:00,53.0,29.0,30.13,West,280,6.0,13.0,39,0.00,,,0.00,,2013-04-04 17:13:00,
2013-04-04 12:22:00,53.0,27.0,30.12,WSW,256,6.0,12.0,37,0.00,,,0.00,,2013-04-04 17:22:00,
2013-04-04 12:33:00,54.0,28.0,30.12,West,280,6.0,15.0,37,0.00,,,0.00,,2013-04-04 17:33:00,
2013-04-04 12:42:00,54.0,28.0,30.12,West,280,6.0,15.0,37,0.00,,,0.00,,2013-04-04 17:42:00,
2013-04-04 12:52:00,55.0,28.0,30.11,WNW,284,3.0,14.0,35,0.00,,,0.00,,2013-04-04 17:52:00,
2013-04-04 13:02:00,55.0,30.0,30.10,West,273,6.0,14.0,38,0.00,,,0.00,,2013-04-04 18:02:00,
2013-04-04 13:12:00,55.0,30.0,30.10,West,273,6.0,14.0,38,0.00,,,0.00,,2013-04-04 18:12:00,
2013-04-04 13:22:00,56.0,29.0,30.09,WNW,282,4.0,12.0,35,0.00,,,0.00,,2013-04-04 18:22:00,
2013-04-04 13:32:00,56.0,29.0,30.09,SW,222,3.0,12.0,35,0.00,,,0.00,,2013-04-04 18:32:00,
2013-04-04 13:42:00,56.0,29.0,30.09,SW,222,3.0,12.0,35,0.00,,,0.00,,2013-04-04 18:42:00,
2013-04-04 13:52:00,58.0,30.0,30.08,South,189,1.0,13.0,34,0.00,,,0.00,,2013-04-04 18:52:00,
2013-04-04 14:02:00,58.0,30.0,30.07,WSW,248,5.0,11.0,34,0.00,,,0.00,,2013-04-04 19:02:00,
2013-04-04 14:12:00,58.0,30.0,30.07,WSW,248,5.0,11.0,34,0.00,,,0.00,,2013-04-04 19:12:00,
2013-04-04 14:22:00,59.0,32.0,30.06,SW,220,2.0,9.0,36,0.00,,,0.00,,2013-04-04 19:22:00,
2013-04-04 14:32:00,59.0,29.0,30.06,WSW,255,5.0,10.0,32,0.00,,,0.00,,2013-04-04 19:32:00,
2013-04-04 14:42:00,59.0,29.0,30.06,WSW,255,5.0,10.0,32,0.00,,,0.00,,2013-04-04 19:42:00,
2013-04-04 14:52:00,60.0,31.0,30.05,WNW,293,4.0,10.0,33,0.00,,,0.00,,2013-04-04 19:52:00,
2013-04-04 15:12:00,60.0,28.0,30.05,WSW,256,5.0,11.0,30,0.00,,,0.00,,2013-04-04 20:12:00,
2013-04-04 15:22:00,60.0,29.0,30.04,West,269,6.0,13.0,31,0.00,,,0.00,,2013-04-04 20:22:00,
2013-04-04 15:32:00,61.0,29.0,30.04,WNW,294,6.0,13.0,30,0.00,,,0.00,,2013-04-04 20:32:00,
2013-04-04 15:42:00,61.0,29.0,30.04,WNW,294,6.0,13.0,30,0.00,,,0.00,,2013-04-04 20:42:00,
2013-04-04 15:52:00,62.0,31.0,30.03,West,275,5.0,15.0,31,0.00,,,0.00,,2013-04-04 20:52:00,
2013-04-04 16:02:00,62.0,30.0,30.03,WSW,238,7.0,12.0,30,0.00,,,0.00,,2013-04-04 21:02:00,
2013-04-04 16:12:00,62.0,30.0,30.03,WSW,238,7.0,12.0,30,0.00,,,0.00,,2013-04-04 21:12:00,
2013-04-04 16:22:00,62.0,31.0,30.03,West,268,5.0,14.0,31,0.00,,,0.00,,2013-04-04 21:22:00,
2013-04-04 16:32:00,63.0,30.0,30.02,WNW,283,8.0,15.0,29,0.00,,,0.00,,2013-04-04 21:32:00,
2013-04-04 16:43:00,63.0,30.0,30.02,WNW,283,8.0,15.0,29,0.00,,,0.00,,2013-04-04 21:43:00,
2013-04-04 16:52:00,63.0,31.0,30.02,West,280,8.0,14.0,30,0.00,,,0.00,,2013-04-04 21:52:00,
2013-04-04 17:03:00,63.0,31.0,30.02,WNW,296,6.0,13.0,30,0.00,,,0.00,,2013-04-04 22:03:00,
2013-04-04 17:12:00,63.0,31.0,30.02,WNW,296,6.0,13.0,30,0.00,,,0.00,,2013-04-04 22:12:00,
2013-04-04 17:23:00,65.0,33.0,30.02,WNW,298,7.0,13.0,30,0.00,,,0.00,,2013-04-04 22:23:00,
2013-04-04 17:33:00,65.0,35.0,30.02,WNW,292,6.0,12.0,33,0.00,,,0.00,,2013-04-04 22:33:00,
2013-04-04 17:42:00,65.0,35.0,30.02,WNW,292,6.0,12.0,33,0.00,,,0.00,,2013-04-04 22:42:00,
2013-04-04 17:53:00,64.0,35.0,30.01,WNW,290,5.0,14.0,34,0.00,,,0.00,,2013-04-04 22:53:00,
2013-04-04 18:02:00,64.0,37.0,30.01,WNW,295,7.0,10.0,36,0.00,,,0.00,,2013-04-04 23:02:00,
2013-04-04 18:12:00,64.0,37.0,30.01,WNW,295,7.0,10.0,36,0.00,,,0.00,,2013-04-04 23:12:00,
2013-04-04 18:22:00,62.0,39.0,30.01,NNW,340,8.0,14.0,43,0.00,,,0.00,,2013-04-04 23:22:00,
2013-04-04 18:32:00,61.0,40.0,30.01,North,355,5.0,12.0,45,0.00,,,0.00,,2013-04-04 23:32:00,
2013-04-04 18:42:00,61.0,40.0,30.01,North,355,5.0,12.0,45,0.00,,,0.00,,2013-04-04 23:42:00,
2013-04-04 18:52:00,61.0,40.0,30.02,NNW,340,4.0,11.0,45,0.00,,,0.00,,2013-04-04 23:52:00,
2013-04-04 19:02:00,61.0,40.0,30.02,North,354,3.0,9.0,46,0.00,,,0.00,,2013-04-05 00:02:00,
2013-04-04 19:12:00,61.0,40.0,30.02,North,354,3.0,9.0,46,0.00,,,0.00,,2013-04-05 00:12:00,
2013-04-04 19:22:00,59.0,40.0,30.02,NNW,337,5.0,10.0,50,0.00,,,0.00,,2013-04-05 00:22:00,
2013-04-04 19:32:00,57.0,40.0,30.02,NNW,341,3.0,7.0,52,0.00,,,0.00,,2013-04-05 00:32:00,
2013-04-04 19:43:00,57.0,40.0,30.02,NNW,341,3.0,7.0,52,0.00,,,0.00,,2013-04-05 00:43:00,
2013-04-04 19:52:00,55.0,39.0,30.03,NNW,347,3.0,7.0,55,0.00,,,0.00,,2013-04-05 00:52:00,
2013-04-04 20:02:00,54.0,40.0,30.03,NNW,348,4.0,10.0,59,0.00,,,0.00,,2013-04-05 01:02:00,
2013-04-04 20:12:00,54.0,40.0,30.03,NNW,348,4.0,10.0,59,0.00,,,0.00,,2013-04-05 01:12:00,
2013-04-04 20:32:00,51.0,39.0,30.04,North,358,2.0,5.0,64,0.00,,,0.00,,2013-04-05 01:32:00,
2013-04-04 20:42:00,51.0,39.0,30.04,North,358,2.0,5.0,64,0.00,,,0.00,,2013-04-05 01:42:00,
2013-04-04 20:53:00,49.0,37.0,30.05,NNW,346,1.0,4.0,64,0.00,,,0.00,,2013-04-05 01:53:00,
2013-04-04 21:03:00,48.0,36.0,30.06,North,0,0.0,3.0,63,0.00,,,0.00,,2013-04-05 02:03:00,
2013-04-04 21:12:00,48.0,36.0,30.06,North,0,0.0,3.0,63,0.00,,,0.00,,2013-04-05 02:12:00,
2013-04-04 21:22:00,47.0,35.0,30.06,NNW,343,1.0,3.0,63,0.00,,,0.00,,2013-04-05 02:22:00,
2013-04-04 21:32:00,46.0,35.0,30.06,North,1,1.0,2.0,64,0.00,,,0.00,,2013-04-05 02:32:00,
2013-04-04 21:42:00,46.0,35.0,30.06,North,1,1.0,2.0,64,0.00,,,0.00,,2013-04-05 02:42:00,
2013-04-04 21:52:00,45.0,34.0,30.06,North,349,1.0,3.0,65,0.00,,,0.00,,2013-04-05 02:52:00,
2013-04-04 22:02:00,44.0,34.0,30.06,NNW,329,1.0,4.0,67,0.00,,,0.00,,2013-04-05 03:02:00,
2013-04-04 22:12:00,44.0,34.0,30.06,NNW,329,1.0,4.0,67,0.00,,,0.00,,2013-04-05 03:12:00,
2013-04-04 22:22:00,44.0,34.0,30.07,North,0,0.0,1.0,68,0.00,,,0.00,,2013-04-05 03:22:00,
2013-04-04 22:32:00,43.0,33.0,30.07,North,0,0.0,2.0,68,0.00,,,0.00,,2013-04-05 03:32:00,
2013-04-04 22:43:00,43.0,33.0,30.07,North,0,0.0,2.0,68,0.00,,,0.00,,2013-04-05 03:43:00,
2013-04-04 22:53:00,43.0,34.0,30.08,North,355,1.0,4.0,71,0.00,,,0.00,,2013-04-05 03:53:00,
2013-04-04 23:02:00,43.0,35.0,30.08,North,5,1.0,4.0,72,0.00,,,0.00,,2013-04-05 04:02:00,
2013-04-04 23:12:00,43.0,35.0,30.08,North,5,1.0,4.0,72,0.00,,,0.00,,2013-04-05 04:12:00,
2013-04-04 23:22:00,42.0,34.0,30.09,NNW,340,1.0,6.0,72,0.00,,,0.00,,2013-04-05 04:22:00,
2013-04-04 23:32:00,42.0,34.0,30.09,North,0,0.0,4.0,72,0.00,,,0.00,,2013-04-05 04:32:00,
2013-04-04 23:42:00,42.0,34.0,30.09,North,0,0.0,4.0,72,0.00,,,0.00,,2013-04-05 04:42:00,
2013-04-04 23:52:00,41.0,33.0,30.09,North,0,0.0,2.0,74,0.00,,,0.00,,2013-04-05 04:52:00,